Main page
METAR-TAF:

METAR-TAF

Airports :

Wallis, France

Hihifo Airport

latitude: 13-14S, longitude: 176-10W, elevation: 23 m

METAR: missing

Time: 22:33 (10:33 UTC)

Forecast

The report was made 5 hours and 33 minutes ago, at 05:00 UTC
Forecast valid from 28 at 06 UTC to 29 at 06 UTC
Wind 8 kt from the East/Southeast
Visibility 10 km or more
Scattered clouds at a height of 2000 ft

TAF: NLWW 280500Z 2806/2906 12008KT 9999 SCT020

Weather observations and forecasts of more than 4000 airports (METAR and TAF reports).

The available stations are represented by yellow and red dots on the map.

Hover mouse over dot to see the name of the station.

Then click to see weather observations and forecasts.

To change the map : click on the green buttons with a black cross to zoom in, on the green button with a dash to zoom out, or on the green arrows for adjacent maps.


METAR-TAF: